sensor_id;sensor_type;location;lat;lon;timestamp;temperature;humidity
32147;DHT22;32190;49.112;8.598;2022-09-09T00:03:04;22.50;51.20
32147;DHT22;32190;49.112;8.598;2022-09-09T00:15:05;22.40;51.40
32147;DHT22;32190;49.112;8.598;2022-09-09T00:21:13;22.40;51.50
32147;DHT22;32190;49.112;8.598;2022-09-09T00:33:19;22.40;51.60
32147;DHT22;32190;49.112;8.598;2022-09-09T00:39:36;22.40;51.40
32147;DHT22;32190;49.112;8.598;2022-09-09T00:57:35;22.40;51.60
32147;DHT22;32190;49.112;8.598;2022-09-09T01:09:58;22.30;51.90
32147;DHT22;32190;49.112;8.598;2022-09-09T01:15:50;22.20;52.00
32147;DHT22;32190;49.112;8.598;2022-09-09T01:22:01;22.20;51.90
32147;DHT22;32190;49.112;8.598;2022-09-09T01:28:01;22.20;52.00
32147;DHT22;32190;49.112;8.598;2022-09-09T01:33:53;22.20;52.00
32147;DHT22;32190;49.112;8.598;2022-09-09T01:39:44;22.30;52.00
32147;DHT22;32190;49.112;8.598;2022-09-09T01:45:35;22.30;51.90
32147;DHT22;32190;49.112;8.598;2022-09-09T01:51:26;22.20;51.80
32147;DHT22;32190;49.112;8.598;2022-09-09T01:57:26;22.20;51.80
32147;DHT22;32190;49.112;8.598;2022-09-09T02:03:27;22.20;51.90
32147;DHT22;32190;49.112;8.598;2022-09-09T02:09:22;22.30;52.10
32147;DHT22;32190;49.112;8.598;2022-09-09T02:15:21;22.30;52.10
32147;DHT22;32190;49.112;8.598;2022-09-09T02:21:13;22.30;52.30
32147;DHT22;32190;49.112;8.598;2022-09-09T02:27:06;22.30;52.30
32147;DHT22;32190;49.112;8.598;2022-09-09T02:33:01;22.30;52.30
32147;DHT22;32190;49.112;8.598;2022-09-09T02:38:53;22.20;52.30
32147;DHT22;32190;49.112;8.598;2022-09-09T02:44:45;22.20;52.30
32147;DHT22;32190;49.112;8.598;2022-09-09T02:50:45;22.10;52.20
32147;DHT22;32190;49.112;8.598;2022-09-09T02:56:43;22.00;52.30
32147;DHT22;32190;49.112;8.598;2022-09-09T03:02:36;22.00;52.30
32147;DHT22;32190;49.112;8.598;2022-09-09T03:08:27;22.00;52.20
32147;DHT22;32190;49.112;8.598;2022-09-09T03:14:18;22.00;52.20
32147;DHT22;32190;49.112;8.598;2022-09-09T03:20:11;21.90;52.20
32147;DHT22;32190;49.112;8.598;2022-09-09T03:26:02;21.90;52.20
32147;DHT22;32190;49.112;8.598;2022-09-09T03:31:53;21.90;52.20
32147;DHT22;32190;49.112;8.598;2022-09-09T03:37:43;21.90;52.20
32147;DHT22;32190;49.112;8.598;2022-09-09T03:43:34;21.90;52.10
32147;DHT22;32190;49.112;8.598;2022-09-09T03:49:25;21.90;52.10
32147;DHT22;32190;49.112;8.598;2022-09-09T03:55:16;21.80;52.00
32147;DHT22;32190;49.112;8.598;2022-09-09T04:01:12;21.90;52.00
32147;DHT22;32190;49.112;8.598;2022-09-09T04:07:03;21.80;52.20
32147;DHT22;32190;49.112;8.598;2022-09-09T04:12:56;21.80;51.90
32147;DHT22;32190;49.112;8.598;2022-09-09T04:18:46;21.80;51.80
32147;DHT22;32190;49.112;8.598;2022-09-09T04:24:37;21.70;51.70
32147;DHT22;32190;49.112;8.598;2022-09-09T04:30:28;21.70;51.80
32147;DHT22;32190;49.112;8.598;2022-09-09T04:36:19;21.70;51.80
32147;DHT22;32190;49.112;8.598;2022-09-09T04:42:09;21.70;51.80
32147;DHT22;32190;49.112;8.598;2022-09-09T04:48:00;21.70;51.80
32147;DHT22;32190;49.112;8.598;2022-09-09T04:53:52;21.70;51.80
32147;DHT22;32190;49.112;8.598;2022-09-09T04:59:44;21.70;51.80
32147;DHT22;32190;49.112;8.598;2022-09-09T05:05:35;21.70;51.70
32147;DHT22;32190;49.112;8.598;2022-09-09T05:11:27;21.70;51.60
32147;DHT22;32190;49.112;8.598;2022-09-09T05:17:18;21.70;51.70
32147;DHT22;32190;49.112;8.598;2022-09-09T05:23:09;21.70;51.60
32147;DHT22;32190;49.112;8.598;2022-09-09T05:29:02;21.70;51.60
32147;DHT22;32190;49.112;8.598;2022-09-09T05:34:52;21.80;51.70
32147;DHT22;32190;49.112;8.598;2022-09-09T05:40:49;21.70;51.50
32147;DHT22;32190;49.112;8.598;2022-09-09T05:46:40;21.70;51.50
32147;DHT22;32190;49.112;8.598;2022-09-09T05:52:31;21.80;51.50
32147;DHT22;32190;49.112;8.598;2022-09-09T05:58:22;21.80;51.40
32147;DHT22;32190;49.112;8.598;2022-09-09T06:04:13;21.80;51.50
32147;DHT22;32190;49.112;8.598;2022-09-09T06:10:03;21.80;51.50
32147;DHT22;32190;49.112;8.598;2022-09-09T06:15:54;21.80;51.40
32147;DHT22;32190;49.112;8.598;2022-09-09T06:21:45;21.80;51.50
32147;DHT22;32190;49.112;8.598;2022-09-09T06:27:35;21.90;51.60
32147;DHT22;32190;49.112;8.598;2022-09-09T06:33:26;22.00;51.80
32147;DHT22;32190;49.112;8.598;2022-09-09T06:39:18;22.00;51.50
32147;DHT22;32190;49.112;8.598;2022-09-09T06:45:09;22.00;51.40
32147;DHT22;32190;49.112;8.598;2022-09-09T06:51:04;22.10;51.50
32147;DHT22;32190;49.112;8.598;2022-09-09T06:56:55;22.20;51.80
32147;DHT22;32190;49.112;8.598;2022-09-09T07:02:46;22.20;51.60
32147;DHT22;32190;49.112;8.598;2022-09-09T07:08:37;22.30;51.70
32147;DHT22;32190;49.112;8.598;2022-09-09T07:14:27;22.30;51.90
32147;DHT22;32190;49.112;8.598;2022-09-09T07:20:18;22.40;51.70
32147;DHT22;32190;49.112;8.598;2022-09-09T07:26:11;22.50;51.60
32147;DHT22;32190;49.112;8.598;2022-09-09T07:32:02;22.60;51.40
32147;DHT22;32190;49.112;8.598;2022-09-09T07:37:54;22.70;51.70
32147;DHT22;32190;49.112;8.598;2022-09-09T07:43:47;22.70;51.60
32147;DHT22;32190;49.112;8.598;2022-09-09T07:49:38;22.70;51.70
32147;DHT22;32190;49.112;8.598;2022-09-09T07:55:28;22.80;51.70
32147;DHT22;32190;49.112;8.598;2022-09-09T08:01:25;22.90;52.00
32147;DHT22;32190;49.112;8.598;2022-09-09T08:07:16;22.90;52.30
32147;DHT22;32190;49.112;8.598;2022-09-09T08:13:06;22.90;52.00
32147;DHT22;32190;49.112;8.598;2022-09-09T08:18:59;22.90;52.20
32147;DHT22;32190;49.112;8.598;2022-09-09T08:24:49;22.90;52.40
32147;DHT22;32190;49.112;8.598;2022-09-09T08:30:40;23.00;52.90
32147;DHT22;32190;49.112;8.598;2022-09-09T08:36:33;23.00;52.60
32147;DHT22;32190;49.112;8.598;2022-09-09T08:42:31;23.10;52.60
32147;DHT22;32190;49.112;8.598;2022-09-09T08:48:56;23.30;53.20
32147;DHT22;32190;49.112;8.598;2022-09-09T08:54:48;23.30;52.90
32147;DHT22;32190;49.112;8.598;2022-09-09T09:13:20;23.50;52.70
32147;DHT22;32190;49.112;8.598;2022-09-09T09:19:14;23.50;52.50
32147;DHT22;32190;49.112;8.598;2022-09-09T09:25:19;23.40;52.10
32147;DHT22;32190;49.112;8.598;2022-09-09T09:31:11;23.40;52.10
32147;DHT22;32190;49.112;8.598;2022-09-09T09:37:02;23.40;52.10
32147;DHT22;32190;49.112;8.598;2022-09-09T09:43:01;23.40;52.00
32147;DHT22;32190;49.112;8.598;2022-09-09T09:49:05;23.40;52.00
32147;DHT22;32190;49.112;8.598;2022-09-09T09:55:03;23.40;52.00
32147;DHT22;32190;49.112;8.598;2022-09-09T10:00:54;23.40;51.90
32147;DHT22;32190;49.112;8.598;2022-09-09T10:06:45;23.40;51.40
32147;DHT22;32190;49.112;8.598;2022-09-09T10:13:02;23.50;51.40
32147;DHT22;32190;49.112;8.598;2022-09-09T10:19:16;23.60;51.40
32147;DHT22;32190;49.112;8.598;2022-09-09T10:25:20;23.80;50.90
32147;DHT22;32190;49.112;8.598;2022-09-09T10:31:35;24.00;50.60
32147;DHT22;32190;49.112;8.598;2022-09-09T10:38:10;24.10;49.50
32147;DHT22;32190;49.112;8.598;2022-09-09T10:50:29;24.20;49.50
32147;DHT22;32190;49.112;8.598;2022-09-09T10:56:24;24.30;48.80
32147;DHT22;32190;49.112;8.598;2022-09-09T11:02:27;24.40;49.00
32147;DHT22;32190;49.112;8.598;2022-09-09T11:08:24;24.40;48.70
32147;DHT22;32190;49.112;8.598;2022-09-09T11:20:14;24.50;48.70
32147;DHT22;32190;49.112;8.598;2022-09-09T11:26:06;24.70;48.20
32147;DHT22;32190;49.112;8.598;2022-09-09T11:32:21;24.80;48.20
32147;DHT22;32190;49.112;8.598;2022-09-09T11:38:25;24.90;48.00
32147;DHT22;32190;49.112;8.598;2022-09-09T11:44:25;24.90;47.90
32147;DHT22;32190;49.112;8.598;2022-09-09T11:56:13;25.20;47.60
32147;DHT22;32190;49.112;8.598;2022-09-09T12:08:28;25.30;46.50
32147;DHT22;32190;49.112;8.598;2022-09-09T12:14:34;25.40;46.70
32147;DHT22;32190;49.112;8.598;2022-09-09T12:20:38;25.40;46.40
32147;DHT22;32190;49.112;8.598;2022-09-09T12:26:40;25.50;46.50
32147;DHT22;32190;49.112;8.598;2022-09-09T12:32:32;25.60;46.60
32147;DHT22;32190;49.112;8.598;2022-09-09T12:38:36;25.70;46.60
32147;DHT22;32190;49.112;8.598;2022-09-09T12:44:27;25.80;46.20
32147;DHT22;32190;49.112;8.598;2022-09-09T12:50:25;26.00;46.90
32147;DHT22;32190;49.112;8.598;2022-09-09T12:56:24;26.00;45.50
32147;DHT22;32190;49.112;8.598;2022-09-09T13:08:11;26.00;46.60
32147;DHT22;32190;49.112;8.598;2022-09-09T13:14:02;25.90;47.10
32147;DHT22;32190;49.112;8.598;2022-09-09T13:19:53;25.80;47.40
32147;DHT22;32190;49.112;8.598;2022-09-09T13:25:56;25.80;47.70
32147;DHT22;32190;49.112;8.598;2022-09-09T13:31:48;25.60;48.10
32147;DHT22;32190;49.112;8.598;2022-09-09T13:37:39;25.40;48.30
32147;DHT22;32190;49.112;8.598;2022-09-09T13:43:44;25.20;48.90
32147;DHT22;32190;49.112;8.598;2022-09-09T13:49:35;25.10;49.60
32147;DHT22;32190;49.112;8.598;2022-09-09T13:55:27;25.10;50.20
32147;DHT22;32190;49.112;8.598;2022-09-09T14:01:18;25.20;50.40
32147;DHT22;32190;49.112;8.598;2022-09-09T14:07:16;25.30;50.20
32147;DHT22;32190;49.112;8.598;2022-09-09T14:13:07;25.30;50.40
32147;DHT22;32190;49.112;8.598;2022-09-09T14:18:58;25.30;50.30
32147;DHT22;32190;49.112;8.598;2022-09-09T14:24:49;25.40;50.30
32147;DHT22;32190;49.112;8.598;2022-09-09T14:30:42;25.40;50.50
32147;DHT22;32190;49.112;8.598;2022-09-09T14:36:34;25.30;50.40
32147;DHT22;32190;49.112;8.598;2022-09-09T14:42:25;25.30;51.00
32147;DHT22;32190;49.112;8.598;2022-09-09T14:48:17;25.30;51.80
32147;DHT22;32190;49.112;8.598;2022-09-09T14:54:08;25.40;53.00
32147;DHT22;32190;49.112;8.598;2022-09-09T14:59:58;25.40;53.90
32147;DHT22;32190;49.112;8.598;2022-09-09T15:05:52;25.50;52.50
32147;DHT22;32190;49.112;8.598;2022-09-09T15:11:42;25.50;54.00
32147;DHT22;32190;49.112;8.598;2022-09-09T15:17:34;25.50;53.60
32147;DHT22;32190;49.112;8.598;2022-09-09T15:23:25;25.40;52.90
32147;DHT22;32190;49.112;8.598;2022-09-09T15:29:16;25.40;53.00
32147;DHT22;32190;49.112;8.598;2022-09-09T15:35:07;25.30;52.30
32147;DHT22;32190;49.112;8.598;2022-09-09T15:40:57;25.20;52.70
32147;DHT22;32190;49.112;8.598;2022-09-09T15:46:49;25.20;53.00
32147;DHT22;32190;49.112;8.598;2022-09-09T15:52:40;25.30;53.60
32147;DHT22;32190;49.112;8.598;2022-09-09T15:58:37;25.40;53.90
32147;DHT22;32190;49.112;8.598;2022-09-09T16:04:28;25.40;53.30
32147;DHT22;32190;49.112;8.598;2022-09-09T16:10:19;25.50;53.20
32147;DHT22;32190;49.112;8.598;2022-09-09T16:16:11;25.50;52.60
32147;DHT22;32190;49.112;8.598;2022-09-09T16:22:04;25.60;53.50
32147;DHT22;32190;49.112;8.598;2022-09-09T16:27:54;25.50;52.70
32147;DHT22;32190;49.112;8.598;2022-09-09T16:33:45;25.40;52.30
32147;DHT22;32190;49.112;8.598;2022-09-09T16:39:36;25.30;52.60
32147;DHT22;32190;49.112;8.598;2022-09-09T16:45:27;25.20;52.10
32147;DHT22;32190;49.112;8.598;2022-09-09T16:51:23;25.10;52.30
32147;DHT22;32190;49.112;8.598;2022-09-09T16:57:14;24.90;52.80
32147;DHT22;32190;49.112;8.598;2022-09-09T17:03:04;24.90;52.90
32147;DHT22;32190;49.112;8.598;2022-09-09T17:08:56;24.80;52.60
32147;DHT22;32190;49.112;8.598;2022-09-09T17:14:47;24.60;53.20
32147;DHT22;32190;49.112;8.598;2022-09-09T17:20:39;24.60;53.10
32147;DHT22;32190;49.112;8.598;2022-09-09T17:26:32;24.50;53.10
32147;DHT22;32190;49.112;8.598;2022-09-09T17:32:25;24.50;53.30
32147;DHT22;32190;49.112;8.598;2022-09-09T17:38:16;24.30;53.10
32147;DHT22;32190;49.112;8.598;2022-09-09T17:44:07;24.30;52.80
32147;DHT22;32190;49.112;8.598;2022-09-09T17:49:58;24.20;52.70
32147;DHT22;32190;49.112;8.598;2022-09-09T17:55:49;24.10;52.90
32147;DHT22;32190;49.112;8.598;2022-09-09T18:01:45;24.00;52.60
32147;DHT22;32190;49.112;8.598;2022-09-09T18:07:35;23.90;52.80
32147;DHT22;32190;49.112;8.598;2022-09-09T18:13:27;23.80;52.70
32147;DHT22;32190;49.112;8.598;2022-09-09T18:19:20;23.60;53.00
32147;DHT22;32190;49.112;8.598;2022-09-09T18:25:10;23.50;53.30
32147;DHT22;32190;49.112;8.598;2022-09-09T18:31:07;23.40;53.50
32147;DHT22;32190;49.112;8.598;2022-09-09T18:37:00;23.40;53.60
32147;DHT22;32190;49.112;8.598;2022-09-09T18:42:50;23.30;53.60
32147;DHT22;32190;49.112;8.598;2022-09-09T18:48:42;23.20;53.40
32147;DHT22;32190;49.112;8.598;2022-09-09T18:54:34;23.10;53.20
32147;DHT22;32190;49.112;8.598;2022-09-09T19:00:26;23.10;53.70
32147;DHT22;32190;49.112;8.598;2022-09-09T19:06:21;23.00;54.00
32147;DHT22;32190;49.112;8.598;2022-09-09T19:12:14;23.00;54.00
32147;DHT22;32190;49.112;8.598;2022-09-09T19:18:28;23.00;53.70
32147;DHT22;32190;49.112;8.598;2022-09-09T19:24:23;22.80;54.80
32147;DHT22;32190;49.112;8.598;2022-09-09T19:30:13;22.80;54.60
32147;DHT22;32190;49.112;8.598;2022-09-09T19:36:05;22.70;54.80
32147;DHT22;32190;49.112;8.598;2022-09-09T19:41:57;22.70;55.30
32147;DHT22;32190;49.112;8.598;2022-09-09T19:47:47;22.70;54.90
32147;DHT22;32190;49.112;8.598;2022-09-09T19:53:41;22.60;55.40
32147;DHT22;32190;49.112;8.598;2022-09-09T19:59:31;22.60;55.50
32147;DHT22;32190;49.112;8.598;2022-09-09T20:05:39;22.60;55.40
32147;DHT22;32190;49.112;8.598;2022-09-09T20:11:39;22.60;55.90
32147;DHT22;32190;49.112;8.598;2022-09-09T20:18:11;22.60;55.70
32147;DHT22;32190;49.112;8.598;2022-09-09T20:24:08;22.60;55.70
32147;DHT22;32190;49.112;8.598;2022-09-09T20:30:00;22.60;55.80
32147;DHT22;32190;49.112;8.598;2022-09-09T20:35:50;22.70;55.50
32147;DHT22;32190;49.112;8.598;2022-09-09T20:41:44;22.70;55.40
32147;DHT22;32190;49.112;8.598;2022-09-09T20:47:35;22.60;55.30
32147;DHT22;32190;49.112;8.598;2022-09-09T20:53:26;22.60;55.40
32147;DHT22;32190;49.112;8.598;2022-09-09T20:59:19;22.50;55.50
32147;DHT22;32190;49.112;8.598;2022-09-09T21:05:10;22.50;55.60
32147;DHT22;32190;49.112;8.598;2022-09-09T21:11:01;22.50;55.50
32147;DHT22;32190;49.112;8.598;2022-09-09T21:16:52;22.50;55.60
32147;DHT22;32190;49.112;8.598;2022-09-09T21:22:43;22.40;55.70
32147;DHT22;32190;49.112;8.598;2022-09-09T21:28:35;22.40;55.80
32147;DHT22;32190;49.112;8.598;2022-09-09T21:34:25;22.40;56.00
32147;DHT22;32190;49.112;8.598;2022-09-09T21:40:16;22.40;56.00
32147;DHT22;32190;49.112;8.598;2022-09-09T21:46:09;22.40;56.10
32147;DHT22;32190;49.112;8.598;2022-09-09T21:52:00;22.30;56.20
32147;DHT22;32190;49.112;8.598;2022-09-09T21:57:50;22.40;56.00
32147;DHT22;32190;49.112;8.598;2022-09-09T22:03:41;22.30;56.10
32147;DHT22;32190;49.112;8.598;2022-09-09T22:09:32;22.20;56.30
32147;DHT22;32190;49.112;8.598;2022-09-09T22:15:23;22.20;56.30
32147;DHT22;32190;49.112;8.598;2022-09-09T22:21:16;22.10;56.10
32147;DHT22;32190;49.112;8.598;2022-09-09T22:27:07;22.10;56.30
32147;DHT22;32190;49.112;8.598;2022-09-09T22:32:58;22.00;56.20
32147;DHT22;32190;49.112;8.598;2022-09-09T22:38:50;21.90;56.10
32147;DHT22;32190;49.112;8.598;2022-09-09T22:44:41;21.90;55.90
32147;DHT22;32190;49.112;8.598;2022-09-09T22:50:33;21.90;55.90
32147;DHT22;32190;49.112;8.598;2022-09-09T22:56:24;21.80;55.90
32147;DHT22;32190;49.112;8.598;2022-09-09T23:02:15;21.70;56.00
32147;DHT22;32190;49.112;8.598;2022-09-09T23:08:05;21.60;56.00
32147;DHT22;32190;49.112;8.598;2022-09-09T23:13:58;21.60;56.20
32147;DHT22;32190;49.112;8.598;2022-09-09T23:19:50;21.60;56.30
32147;DHT22;32190;49.112;8.598;2022-09-09T23:25:45;21.50;56.10
32147;DHT22;32190;49.112;8.598;2022-09-09T23:31:36;21.50;56.30
32147;DHT22;32190;49.112;8.598;2022-09-09T23:37:27;21.50;56.40
32147;DHT22;32190;49.112;8.598;2022-09-09T23:43:21;21.40;56.10
32147;DHT22;32190;49.112;8.598;2022-09-09T23:49:15;21.40;56.00
32147;DHT22;32190;49.112;8.598;2022-09-09T23:55:06;21.40;56.10
